ADDS METAR Data INFO
IDs: Format: Raw Decoded Include TAF

Data at: 1513 UTC 23 Oct 2017

KJKJ 231454Z AUTO 32020G24KT 10SM OVC024 08/04 A2985 RMK AO2
KJKJ 231434Z AUTO 31017G24KT 10SM OVC024 08/04 A2984 RMK AO2
KJKJ 231413Z AUTO 30017G22KT 10SM OVC022 08/04 A2983 RMK AO2
KJKJ 231359Z AUTO 29016KT 10SM OVC022 08/03 A2982 RMK AO2
KJKJ 231334Z AUTO 29016G22KT 10SM OVC022 08/03 A2981 RMK AO2
KJKJ 231313Z AUTO 29017G23KT 10SM BKN024 08/03 A2980 RMK AO2
KJKJ 231254Z AUTO 28021G29KT 10SM CLR 08/02 A2978 RMK AO2
KJKJ 231234Z AUTO 29021G28KT 10SM CLR 08/02 A2977 RMK AO2
KJKJ 231214Z AUTO 29018G27KT 10SM CLR 09/02 A2977 RMK AO2
KJKJ 231154Z AUTO 29022G31KT 10SM SCT110 09/02 A2976 RMK AO2
KJKJ 231134Z AUTO 29016G23KT 10SM SCT110 10/02 A2974 RMK AO2
KJKJ 231113Z AUTO 29018G25KT 10SM CLR 11/03 A2973 RMK AO2
KJKJ 231054Z AUTO 29023G28KT 10SM SCT110 11/03 A2972 RMK AO2
KJKJ 231034Z AUTO 28017G22KT 10SM SCT110 11/05 A2971 RMK AO2
KJKJ 231013Z AUTO 28016G20KT 10SM CLR 11/05 A2970 RMK AO2
KJKJ 230954Z AUTO 28014G19KT 10SM CLR 12/06 A2969 RMK AO2
KJKJ 230934Z AUTO 27011KT 10SM SCT075 BKN085 12/06 A2969 RMK AO2
KJKJ 230913Z AUTO 28014G18KT 10SM BKN075 BKN095 12/06 A2968 RMK AO2
KJKJ 230854Z AUTO 27011KT 10SM BKN075 OVC095 13/06 A2968 RMK AO2
KJKJ 230834Z AUTO 27010KT 10SM BKN075 13/05 A2967 RMK AO2
KJKJ 230814Z AUTO 25009KT 10SM SCT075 12/04 A2967 RMK AO2
KJKJ 230754Z AUTO 25009KT 10SM CLR 12/04 A2966 RMK AO2
KJKJ 230734Z AUTO 25007KT 10SM SCT110 12/04 A2966 RMK AO2
KJKJ 230714Z AUTO 23006KT 10SM SCT100 12/03 A2965 RMK AO2
KJKJ 230654Z AUTO 20006KT 10SM CLR 12/03 A2964 RMK AO2
KJKJ 230634Z AUTO 19005KT 10SM CLR 12/03 A2964 RMK AO2
KJKJ 230614Z AUTO 18005KT 10SM SCT090 120 13/03 A2964 RMK AO2
KJKJ 230554Z AUTO 18007KT 10SM -DZ SCT050 SCT070 OVC090 13/03 A2965 RMK AO2
KJKJ 230534Z AUTO 18009KT 10SM -DZ SCT050 SCT070 OVC090 12/03 A2966 RMK AO2
KJKJ 230514Z AUTO 18012G16KT 10SM -DZ SCT036 SCT060 OVC090 13/03 A2965 RMK AO2
KJKJ 230454Z AUTO 19007KT 10SM SCT070 BKN090 BKN110 13/02 A2966 RMK AO2
KJKJ 230434Z AUTO 18010KT 10SM SCT110 13/01 A2966 RMK AO2
KJKJ 230414Z AUTO 17011KT 10SM CLR 13/01 A2967 RMK AO2
KJKJ 230354Z AUTO 18011KT 10SM CLR 14/00 A2967 RMK AO2
KJKJ 230334Z AUTO 19011G15KT 10SM CLR 14/M01 A2969 RMK AO2
KJKJ 230314Z AUTO 18010KT 10SM CLR 14/M01 A2969 RMK AO2
KJKJ 230254Z AUTO 18013G18KT 10SM SCT090 15/M01 A2970 RMK AO2
KJKJ 230234Z AUTO 18013G17KT 10SM OVC090 15/M01 A2970 RMK AO2
KJKJ 230214Z AUTO 18012G15KT 10SM OVC080 15/M01 A2971 RMK AO2
KJKJ 230154Z AUTO 18010KT 10SM OVC080 14/00 A2972 RMK AO2
KJKJ 230133Z AUTO 18009KT 10SM SCT080 15/00 A2973 RMK AO2
KJKJ 230114Z AUTO 18010G14KT 10SM SCT080 16/M01 A2973 RMK AO2
KJKJ 230054Z AUTO 19010G19KT 10SM BKN080 16/M01 A2973 RMK AO2
KJKJ 230034Z AUTO 19008KT 10SM BKN080 16/M01 A2973 RMK AO2
KJKJ 230014Z AUTO 19008KT 10SM BKN080 16/M02 A2973 RMK AO2
KJKJ 222354Z AUTO 18009KT 10SM CLR 16/M02 A2973 RMK AO2
KJKJ 222334Z AUTO 19009G15KT 10SM CLR 16/M02 A2973 RMK AO2
KJKJ 222314Z AUTO 19009G19KT 10SM CLR 17/M02 A2974 RMK AO2
KJKJ 222254Z AUTO 19009G19KT 10SM SCT080 16/M02 A2976 RMK AO2
KJKJ 222234Z AUTO 18008KT 10SM CLR 16/M01 A2975 RMK AO2
KJKJ 222214Z AUTO 19009KT 10SM CLR 16/M01 A2976 RMK AO2
KJKJ 222154Z AUTO 20007KT 10SM CLR 16/M01 A2976 RMK AO2
KJKJ 222133Z AUTO 20009KT 10SM CLR 16/M02 A2978 RMK AO2
KJKJ 222114Z AUTO 21011KT 10SM CLR 17/M02 A2978 RMK AO2
KJKJ 222054Z AUTO 21014KT 10SM CLR 17/M03 A2979 RMK AO2
KJKJ 222033Z AUTO 22015G22KT 10SM CLR 17/M04 A2979 RMK AO2
KJKJ 222014Z AUTO 21016G20KT 10SM CLR 18/M03 A2980 RMK AO2
KJKJ 221954Z AUTO 22015G20KT 10SM CLR 17/M03 A2981 RMK AO2
KJKJ 221933Z AUTO 20017G21KT 10SM CLR 17/M02 A2981 RMK AO2
KJKJ 221914Z AUTO 22016G23KT 10SM CLR 17/M03 A2982 RMK AO2
KJKJ 221854Z AUTO 21019G23KT 10SM CLR 17/M02 A2984 RMK AO2
KJKJ 221833Z AUTO 21019G22KT 10SM CLR 17/M02 A2984 RMK AO2
KJKJ 221814Z AUTO 23015G20KT 10SM CLR 16/M02 A2985 RMK AO2
KJKJ 221754Z AUTO 21011G16KT 10SM CLR 16/M01 A2987 RMK AO2
KJKJ 221733Z AUTO 23013G17KT 10SM CLR 15/M01 A2988 RMK AO2
KJKJ 221714Z AUTO 22009KT 10SM CLR 14/00 A2989 RMK AO2
KJKJ 221654Z AUTO 22010KT 10SM CLR 13/01 A2990 RMK AO2
KJKJ 221633Z AUTO 23010KT 10SM CLR 12/01 A2990 RMK AO2
KJKJ 221614Z AUTO 22007KT 10SM CLR 11/01 A2990 RMK AO2
KJKJ 221554Z AUTO 23010G14KT 10SM CLR 09/01 A2990 RMK AO2
KJKJ 221533Z AUTO 23009KT 10SM CLR 08/01 A2991 RMK AO2
KJKJ 221514Z AUTO 23009KT 10SM CLR 07/01 A2991 RMK AO2
KJKJ 221454Z AUTO 22007KT 10SM CLR 06/01 A2991 RMK AO2
KJKJ 221434Z AUTO 21006KT 10SM CLR 05/01 A2990 RMK AO2
KJKJ 221414Z AUTO 18004KT 10SM CLR 04/01 A2990 RMK AO2
KJKJ 221354Z AUTO 21007KT 10SM CLR 04/00 A2990 RMK AO2
KJKJ 221334Z AUTO 17005KT 10SM CLR 03/00 A2990 RMK AO2
KJKJ 221314Z AUTO 21003KT 10SM CLR 03/00 A2989 RMK AO2
KJKJ 221254Z AUTO 24008KT 10SM CLR 04/00 A2988 RMK AO2
KJKJ 221234Z AUTO 24004KT 10SM CLR 03/00 A2987 RMK AO2
KJKJ 221214Z AUTO 23005KT 10SM CLR 03/00 A2986 RMK AO2
KJKJ 221154Z AUTO 23006KT 10SM CLR 04/01 A2985 RMK AO2
KJKJ 221134Z AUTO 23006KT 10SM CLR 04/01 A2986 RMK AO2
KJKJ 221114Z AUTO 23006KT 10SM CLR 04/01 A2986 RMK AO2
KJKJ 221054Z AUTO 23006KT 10SM CLR 05/01 A2986 RMK AO2
KJKJ 221034Z AUTO 23005KT 10SM CLR 05/01 A2986 RMK AO2
KJKJ 221014Z AUTO 23005KT 10SM CLR 06/02 A2985 RMK AO2
KJKJ 220954Z AUTO 24008KT 10SM CLR 06/02 A2984 RMK AO2
KJKJ 220934Z AUTO 24006KT 10SM CLR 06/02 A2983 RMK AO2
KJKJ 220914Z AUTO 24007KT 10SM CLR 06/02 A2982 RMK AO2
KJKJ 220854Z AUTO 23007KT 10SM CLR 07/02 A2981 RMK AO2
KJKJ 220834Z AUTO 23008KT 10SM CLR 06/02 A2982 RMK AO2
KJKJ 220814Z AUTO 24007KT 10SM SCT060 07/03 A2981 RMK AO2
KJKJ 220754Z AUTO 24008KT 10SM BKN060 08/03 A2982 RMK AO2
KJKJ 220734Z AUTO 24007KT 10SM SCT050 08/03 A2981 RMK AO2
KJKJ 220714Z AUTO 24009KT 10SM CLR 08/03 A2979 RMK AO2
KJKJ 220654Z AUTO 26011G16KT 10SM CLR 08/03 A2978 RMK AO2
KJKJ 220634Z AUTO 26012KT 10SM SCT050 09/03 A2978 RMK AO2
KJKJ 220614Z AUTO 26016KT 10SM BKN050 10/03 A2978 RMK AO2
KJKJ 220554Z AUTO 26012KT 10SM BKN050 BKN060 OVC080 10/03 A2978 RMK AO2
KJKJ 220534Z AUTO 27013G18KT 10SM BKN047 OVC050 11/03 A2975 RMK AO2
KJKJ 220514Z AUTO 27015G21KT 10SM SCT040 BKN050 OVC060 11/04 A2973 RMK AO2
KJKJ 220454Z AUTO 26011G18KT 10SM OVC060 11/04 A2973 RMK AO2
KJKJ 220434Z AUTO 25011KT 10SM OVC060 11/04 A2972 RMK AO2
KJKJ 220414Z AUTO 25008KT 10SM OVC060 11/04 A2973 RMK AO2
KJKJ 220354Z AUTO 24008KT 10SM OVC060 11/04 A2974 RMK AO2
KJKJ 220334Z AUTO 25009KT 10SM OVC060 11/05 A2972 RMK AO2
KJKJ 220314Z AUTO 25008KT 10SM OVC050 11/06 A2972 RMK AO2